createdAt,value
2019-03-09T00:01:50.878Z,12.93
2019-03-09T00:04:28.923Z,13.15
2019-03-09T00:07:06.465Z,10.82
2019-03-09T00:09:44.404Z,15.53
2019-03-09T00:12:23.812Z,11.60
2019-03-09T00:15:04.207Z,6.35
2019-03-09T00:17:43.116Z,6.03
2019-03-09T00:20:21.297Z,12.82
2019-03-09T00:23:10.115Z,11.00
2019-03-09T00:26:06.528Z,8.38
2019-03-09T00:28:51.434Z,13.88
2019-03-09T00:31:34.066Z,15.45
2019-03-09T00:34:11.566Z,10.88
2019-03-09T00:36:50.778Z,12.25
2019-03-09T00:39:28.032Z,14.25
2019-03-09T00:42:17.118Z,8.30
2019-03-09T00:44:54.408Z,9.85
2019-03-09T00:47:31.537Z,12.05
2019-03-09T00:50:10.056Z,14.43
2019-03-09T00:52:47.447Z,17.25
2019-03-09T00:55:25.232Z,11.97
2019-03-09T00:58:02.676Z,14.25
2019-03-09T01:00:40.278Z,14.55
2019-03-09T01:03:17.694Z,17.82
2019-03-09T01:05:56.638Z,14.18
2019-03-09T01:08:33.935Z,15.05
2019-03-09T01:11:11.408Z,12.75
2019-03-09T01:13:48.677Z,12.47
2019-03-09T01:16:26.003Z,14.85
2019-03-09T01:19:03.342Z,12.58
2019-03-09T01:21:40.783Z,12.63
2019-03-09T01:24:18.017Z,13.08
2019-03-09T01:26:55.413Z,13.58
2019-03-09T01:29:33.385Z,15.95
2019-03-09T01:32:11.161Z,12.03
2019-03-09T01:34:48.408Z,15.18
2019-03-09T01:37:26.712Z,14.13
2019-03-09T01:40:04.017Z,10.03
2019-03-09T01:42:41.342Z,14.25
2019-03-09T01:45:18.657Z,17.80
2019-03-09T01:47:56.341Z,12.58
2019-03-09T01:50:33.487Z,13.93
2019-03-09T01:53:10.705Z,14.28
2019-03-09T01:55:47.995Z,10.55
2019-03-09T01:58:25.337Z,15.85
2019-03-09T02:01:02.547Z,19.92
2019-03-09T02:03:40.079Z,14.68
2019-03-09T02:06:17.628Z,16.20
2019-03-09T02:08:54.975Z,18.02
2019-03-09T02:11:33.528Z,12.63
2019-03-09T02:14:10.883Z,12.55
2019-03-09T02:16:48.259Z,16.97
2019-03-09T02:19:25.756Z,15.78
2019-03-09T02:22:03.070Z,13.78
2019-03-09T02:24:42.072Z,27.10
2019-03-09T02:27:19.533Z,24.02
2019-03-09T02:29:56.952Z,13.93
2019-03-09T02:32:34.069Z,13.78
2019-03-09T02:35:11.528Z,14.13
2019-03-09T02:37:48.935Z,9.30
2019-03-09T02:40:26.723Z,12.30
2019-03-09T02:43:04.266Z,19.60
2019-03-09T02:45:41.483Z,9.13
2019-03-09T02:48:19.208Z,13.68
2019-03-09T02:50:56.797Z,14.58
2019-03-09T02:53:34.112Z,15.15
2019-03-09T02:56:12.589Z,14.78
2019-03-09T02:58:49.833Z,11.50
2019-03-09T03:01:44.629Z,15.08
2019-03-09T03:04:22.081Z,13.10
2019-03-09T03:06:59.443Z,13.28
2019-03-09T03:09:37.229Z,16.40
2019-03-09T03:12:14.650Z,17.35
2019-03-09T03:14:52.029Z,12.78
2019-03-09T03:17:29.453Z,11.73
2019-03-09T03:20:18.139Z,13.43
2019-03-09T03:22:55.549Z,14.40
2019-03-09T03:25:32.875Z,16.77
2019-03-09T03:28:11.022Z,14.07
2019-03-09T03:30:48.611Z,13.32
2019-03-09T03:33:25.925Z,16.27
2019-03-09T03:36:03.146Z,14.45
2019-03-09T03:38:40.999Z,17.45
2019-03-09T03:41:18.275Z,13.58
2019-03-09T03:44:07.448Z,21.77
2019-03-09T03:46:44.705Z,17.52
2019-03-09T03:49:22.205Z,18.12
2019-03-09T03:51:59.617Z,19.90
2019-03-09T03:54:36.687Z,11.65
2019-03-09T03:57:13.936Z,11.78
2019-03-09T03:59:51.394Z,13.55
2019-03-09T04:02:29.773Z,12.50
2019-03-09T04:05:07.217Z,19.73
2019-03-09T04:07:45.139Z,15.28
2019-03-09T04:10:33.776Z,13.80
2019-03-09T04:13:11.005Z,17.45
2019-03-09T04:15:48.729Z,17.40
2019-03-09T04:18:27.759Z,12.55
2019-03-09T04:21:05.114Z,19.02
2019-03-09T04:23:43.892Z,20.27
2019-03-09T04:26:21.128Z,18.00
2019-03-09T04:28:58.516Z,14.30
2019-03-09T04:31:35.956Z,20.45
2019-03-09T04:34:13.271Z,13.95
2019-03-09T04:36:59.384Z,15.58
2019-03-09T04:39:36.535Z,21.42
2019-03-09T04:42:13.744Z,17.20
2019-03-09T04:44:51.228Z,15.80
2019-03-09T04:47:28.502Z,24.95
2019-03-09T04:50:06.133Z,17.10
2019-03-09T04:52:43.468Z,16.00
2019-03-09T04:55:20.846Z,15.23
2019-03-09T04:57:58.446Z,21.60
2019-03-09T05:00:35.670Z,30.02
2019-03-09T05:03:13.111Z,15.93
2019-03-09T05:05:50.397Z,17.23
2019-03-09T05:08:39.916Z,18.48
2019-03-09T05:11:21.331Z,24.82
2019-03-09T05:14:24.888Z,24.47
2019-03-09T05:17:02.273Z,18.77
2019-03-09T05:19:39.807Z,19.80
2019-03-09T05:22:17.669Z,21.42
2019-03-09T05:24:55.096Z,20.88
2019-03-09T05:27:35.364Z,16.97
2019-03-09T05:30:15.427Z,21.07
2019-03-09T05:32:54.197Z,23.45
2019-03-09T05:35:31.521Z,16.67
2019-03-09T05:38:08.856Z,29.15
2019-03-09T05:40:46.336Z,21.42
2019-03-09T05:43:23.832Z,19.77
2019-03-09T05:46:02.352Z,18.95
2019-03-09T05:48:40.577Z,16.87
2019-03-09T05:51:18.594Z,18.82
2019-03-09T05:53:55.906Z,19.80
2019-03-09T05:56:35.364Z,21.02
2019-03-09T05:59:12.535Z,23.52
2019-03-09T06:01:50.278Z,20.30
2019-03-09T06:04:27.606Z,23.42
2019-03-09T06:07:05.039Z,23.10
2019-03-09T06:09:54.058Z,14.38
2019-03-09T06:12:31.456Z,18.67
2019-03-09T06:15:08.808Z,19.17
2019-03-09T06:17:46.055Z,21.35
2019-03-09T06:20:23.235Z,17.65
2019-03-09T06:23:00.757Z,24.67
2019-03-09T06:25:38.711Z,27.45
2019-03-09T06:28:16.088Z,31.42
2019-03-09T06:30:54.078Z,24.80
2019-03-09T06:33:40.159Z,25.17
2019-03-09T06:36:31.688Z,20.37
2019-03-09T06:39:20.573Z,34.25
2019-03-09T06:42:42.480Z,21.85
2019-03-09T06:45:20.693Z,25.57
2019-03-09T06:47:57.937Z,28.32
2019-03-09T06:50:35.320Z,32.10
2019-03-09T06:53:16.800Z,24.43
2019-03-09T06:58:35.194Z,31.57
2019-03-09T07:01:18.161Z,33.75
2019-03-09T07:03:55.773Z,23.55
2019-03-09T07:06:33.926Z,19.95
2019-03-09T07:09:11.651Z,28.23
2019-03-09T07:11:49.301Z,27.60
2019-03-09T07:15:18.989Z,30.37
2019-03-09T07:17:59.874Z,30.50
2019-03-09T07:20:37.337Z,21.33
2019-03-09T07:23:15.623Z,20.68
2019-03-09T07:25:53.555Z,32.48
2019-03-09T07:28:30.719Z,28.15
2019-03-09T07:31:19.253Z,20.55
2019-03-09T07:34:25.434Z,28.92
2019-03-09T07:37:05.204Z,26.52
2019-03-09T07:39:42.998Z,27.13
2019-03-09T07:42:20.726Z,39.05
2019-03-09T07:44:58.036Z,32.60
2019-03-09T07:47:35.381Z,31.02
2019-03-09T07:50:12.989Z,38.15
2019-03-09T07:52:50.808Z,33.55
2019-03-09T07:55:28.173Z,47.00
2019-03-09T07:58:06.792Z,32.85
2019-03-09T08:00:45.010Z,26.17
2019-03-09T08:03:22.823Z,28.17
2019-03-09T08:06:11.995Z,32.48
2019-03-09T08:08:49.831Z,70.67
2019-03-09T08:11:27.180Z,51.60
2019-03-09T08:14:04.786Z,24.32
2019-03-09T08:16:42.379Z,25.65
2019-03-09T08:19:19.790Z,41.45
2019-03-09T08:21:57.628Z,34.55
2019-03-09T08:24:36.080Z,34.65
2019-03-09T08:27:14.263Z,21.75
2019-03-09T08:29:52.129Z,21.12
2019-03-09T08:32:29.845Z,23.57
2019-03-09T08:35:07.307Z,20.30
2019-03-09T08:37:44.871Z,19.60
2019-03-09T08:40:22.511Z,20.32
2019-03-09T08:43:00.218Z,29.25
2019-03-09T08:45:38.146Z,33.35
2019-03-09T08:48:15.625Z,30.57
2019-03-09T08:50:53.277Z,29.15
2019-03-09T08:53:31.264Z,27.82
2019-03-09T08:56:09.451Z,31.93
2019-03-09T08:58:46.788Z,30.80
2019-03-09T09:01:24.215Z,32.30
2019-03-09T09:04:01.421Z,29.82
2019-03-09T09:06:39.366Z,28.75
2019-03-09T09:09:16.558Z,30.05
2019-03-09T09:11:54.019Z,29.18
2019-03-09T09:14:31.318Z,30.10
2019-03-09T09:17:08.561Z,32.35
2019-03-09T09:19:46.642Z,32.30
2019-03-09T09:22:23.917Z,31.62
2019-03-09T09:25:01.202Z,34.13
2019-03-09T09:27:38.599Z,39.75
2019-03-09T09:30:23.969Z,30.23
2019-03-09T09:33:01.465Z,24.35
2019-03-09T09:35:38.630Z,29.00
2019-03-09T09:38:15.937Z,27.50
2019-03-09T09:40:53.831Z,29.60
2019-03-09T09:43:30.967Z,33.15
2019-03-09T09:46:09.942Z,28.73
2019-03-09T09:48:47.763Z,33.95
2019-03-09T09:51:25.380Z,26.85
2019-03-09T09:54:02.853Z,28.07
2019-03-09T09:56:40.178Z,31.37
2019-03-09T09:59:17.762Z,29.23
2019-03-09T10:01:55.017Z,30.77
2019-03-09T10:04:39.696Z,28.92
2019-03-09T10:07:17.913Z,27.40
2019-03-09T10:09:55.157Z,27.65
2019-03-09T10:12:34.074Z,23.62
2019-03-09T10:15:14.349Z,30.30
2019-03-09T10:17:51.710Z,24.95
2019-03-09T10:20:28.841Z,21.25
2019-03-09T10:23:12.316Z,21.68
2019-03-09T10:25:49.953Z,21.17
2019-03-09T10:28:28.104Z,23.75
2019-03-09T10:31:05.391Z,21.35
2019-03-09T10:33:42.809Z,24.40
2019-03-09T10:36:22.049Z,21.07
2019-03-09T10:38:59.789Z,27.85
2019-03-09T10:41:37.479Z,23.50
2019-03-09T10:44:15.235Z,25.75
2019-03-09T10:46:52.561Z,19.40
2019-03-09T10:49:29.829Z,26.10
2019-03-09T10:52:06.991Z,25.45
2019-03-09T10:54:44.444Z,18.92
2019-03-09T10:57:22.174Z,17.25
2019-03-09T11:00:00.017Z,19.73
2019-03-09T11:02:37.722Z,22.30
2019-03-09T11:05:16.271Z,21.85
2019-03-09T11:08:04.925Z,22.95
2019-03-09T11:10:42.779Z,22.93
2019-03-09T11:13:21.084Z,21.95
2019-03-09T11:16:01.086Z,20.92
2019-03-09T11:18:38.500Z,22.22
2019-03-09T11:21:15.647Z,23.95
2019-03-09T11:23:52.910Z,29.02
2019-03-09T11:26:30.489Z,22.42
2019-03-09T11:29:07.659Z,19.57
2019-03-09T11:31:45.117Z,17.62
2019-03-09T11:34:22.608Z,14.63
2019-03-09T11:37:01.166Z,20.62
2019-03-09T11:39:38.605Z,19.90
2019-03-09T11:42:27.374Z,17.23
2019-03-09T11:45:06.858Z,13.62
2019-03-09T11:47:44.740Z,12.07
2019-03-09T11:50:22.520Z,10.18
2019-03-09T11:53:00.381Z,10.78
2019-03-09T11:55:37.708Z,11.78
2019-03-09T11:58:16.664Z,8.73
2019-03-09T12:00:55.214Z,10.65
2019-03-09T12:03:33.078Z,9.88
2019-03-09T12:06:10.371Z,8.50
2019-03-09T12:08:48.156Z,9.20
2019-03-09T12:11:37.714Z,10.05
2019-03-09T12:14:15.037Z,7.10
2019-03-09T12:16:52.669Z,7.97
2019-03-09T12:19:30.098Z,8.13
2019-03-09T12:22:07.864Z,8.40
2019-03-09T12:24:50.137Z,7.95
2019-03-09T12:27:27.327Z,9.20
2019-03-09T12:30:16.664Z,8.78
2019-03-09T12:32:54.407Z,9.75
2019-03-09T12:35:31.575Z,7.55
2019-03-09T12:38:08.870Z,7.55
2019-03-09T12:40:46.325Z,7.00
2019-03-09T12:43:24.102Z,9.43
2019-03-09T12:46:01.843Z,8.25
2019-03-09T12:48:40.326Z,9.60
2019-03-09T12:51:17.605Z,6.30
2019-03-09T12:53:56.173Z,9.98
2019-03-09T12:56:33.302Z,7.17
2019-03-09T12:59:11.812Z,6.85
2019-03-09T13:01:49.194Z,5.45
2019-03-09T13:04:26.401Z,8.33
2019-03-09T13:07:16.147Z,6.97
2019-03-09T13:09:53.891Z,8.15
2019-03-09T13:12:37.445Z,7.50
2019-03-09T13:15:16.268Z,11.25
2019-03-09T13:17:55.596Z,6.37
2019-03-09T13:20:32.924Z,9.48
2019-03-09T13:23:10.513Z,9.25
2019-03-09T13:25:55.016Z,7.37
2019-03-09T13:28:32.940Z,7.92
2019-03-09T13:31:10.998Z,7.05
2019-03-09T13:33:48.557Z,7.87
2019-03-09T13:36:26.124Z,6.08
2019-03-09T13:39:04.419Z,5.70
2019-03-09T13:41:42.651Z,6.35
2019-03-09T13:44:20.883Z,6.85
2019-03-09T13:46:59.101Z,5.55
2019-03-09T13:49:37.353Z,6.47
2019-03-09T13:52:17.518Z,6.78
2019-03-09T13:54:56.941Z,7.78
2019-03-09T13:57:34.462Z,10.32
2019-03-09T14:00:13.227Z,6.37
2019-03-09T14:02:51.357Z,7.15
2019-03-09T14:05:29.025Z,15.05
2019-03-09T14:08:06.824Z,11.53
2019-03-09T14:10:44.352Z,14.68
2019-03-09T14:13:22.629Z,19.05
2019-03-09T14:16:00.485Z,21.33
2019-03-09T14:18:37.879Z,20.00
2019-03-09T14:21:16.499Z,16.42
2019-03-09T14:24:00.594Z,23.30
2019-03-09T14:26:37.799Z,21.75
2019-03-09T14:29:14.991Z,18.45
2019-03-09T14:31:53.301Z,14.73
2019-03-09T14:34:30.802Z,15.70
2019-03-09T14:37:08.247Z,15.55
2019-03-09T14:39:46.094Z,18.20
2019-03-09T14:42:23.441Z,18.92
2019-03-09T14:45:00.812Z,15.50
2019-03-09T14:47:38.262Z,24.30
2019-03-09T14:50:16.058Z,12.95
2019-03-09T14:52:53.411Z,14.80
2019-03-09T14:55:32.602Z,17.17
2019-03-09T14:58:11.565Z,21.90
2019-03-09T15:00:50.046Z,17.87
2019-03-09T15:03:27.433Z,15.32
2019-03-09T15:06:05.260Z,20.62
2019-03-09T15:08:44.066Z,17.98
2019-03-09T15:11:21.289Z,20.72
2019-03-09T15:14:00.716Z,19.20
2019-03-09T15:16:38.032Z,19.92
2019-03-09T15:19:15.770Z,21.95
2019-03-09T15:21:53.130Z,21.50
2019-03-09T15:24:30.761Z,21.62
2019-03-09T15:27:08.062Z,25.57
2019-03-09T15:29:45.456Z,17.67
2019-03-09T15:32:22.814Z,18.77
2019-03-09T15:35:00.737Z,19.48
2019-03-09T15:37:38.405Z,19.80
2019-03-09T15:40:17.398Z,20.50
2019-03-09T15:42:55.131Z,14.43
2019-03-09T15:45:32.740Z,16.25
2019-03-09T15:48:10.249Z,14.25
2019-03-09T15:50:47.786Z,19.98
2019-03-09T15:53:25.287Z,16.80
2019-03-09T15:56:02.674Z,13.70
2019-03-09T15:58:40.599Z,20.30
2019-03-09T16:01:18.369Z,17.02
2019-03-09T16:04:07.437Z,19.85
2019-03-09T16:06:51.730Z,14.73
2019-03-09T16:09:29.018Z,16.00
2019-03-09T16:12:07.202Z,19.57
2019-03-09T16:14:44.371Z,24.63
2019-03-09T16:17:21.764Z,18.60
2019-03-09T16:19:59.625Z,18.92
2019-03-09T16:22:37.419Z,13.90
2019-03-09T16:25:15.450Z,19.30
2019-03-09T16:27:53.697Z,16.85
2019-03-09T16:30:31.421Z,20.57
2019-03-09T16:33:14.660Z,19.15
2019-03-09T16:35:52.831Z,15.63
2019-03-09T16:38:30.132Z,18.05
2019-03-09T16:41:08.228Z,17.37
2019-03-09T16:43:46.977Z,19.15
2019-03-09T16:46:24.492Z,24.02
2019-03-09T16:49:01.860Z,20.72
2019-03-09T16:51:39.225Z,21.93
2019-03-09T16:54:16.467Z,23.73
2019-03-09T16:56:53.900Z,17.70
2019-03-09T16:59:31.078Z,16.95
2019-03-09T17:02:08.764Z,22.32
2019-03-09T17:04:46.503Z,19.92
2019-03-09T17:07:25.657Z,27.15
2019-03-09T17:10:03.229Z,20.27
2019-03-09T17:12:40.752Z,20.08
2019-03-09T17:15:18.138Z,18.00
2019-03-09T17:17:56.407Z,18.32
2019-03-09T17:20:33.486Z,21.17
2019-03-09T17:23:10.836Z,19.02
2019-03-09T17:25:48.369Z,31.27
2019-03-09T17:28:25.848Z,28.85
2019-03-09T17:31:03.253Z,24.02
2019-03-09T17:33:40.499Z,26.82
2019-03-09T17:36:17.853Z,29.87
2019-03-09T17:38:55.375Z,22.00
2019-03-09T17:41:32.723Z,28.27
2019-03-09T17:44:09.919Z,19.70
2019-03-09T17:46:47.310Z,24.43
2019-03-09T17:49:30.271Z,25.12
2019-03-09T17:52:07.666Z,26.07
2019-03-09T17:54:46.159Z,24.60
2019-03-09T17:57:23.537Z,27.95
2019-03-09T18:00:00.737Z,25.90
2019-03-09T18:02:38.298Z,28.17
2019-03-09T18:05:15.932Z,26.68
2019-03-09T18:07:53.378Z,25.60
2019-03-09T18:10:34.875Z,31.85
2019-03-09T18:13:12.440Z,21.55
2019-03-09T18:15:49.616Z,25.48
2019-03-09T18:18:29.375Z,14.95
2019-03-09T18:21:09.776Z,26.27
2019-03-09T18:23:47.169Z,23.40
2019-03-09T18:26:24.552Z,24.18
2019-03-09T18:29:01.842Z,16.52
2019-03-09T18:31:39.304Z,17.82
2019-03-09T18:34:16.510Z,27.65
2019-03-09T18:36:54.998Z,23.35
2019-03-09T18:39:39.750Z,19.02
2019-03-09T18:42:18.100Z,21.97
2019-03-09T18:44:56.334Z,22.48
2019-03-09T18:47:33.530Z,17.75
2019-03-09T18:50:11.046Z,27.55
2019-03-09T18:52:48.644Z,19.35
2019-03-09T18:55:26.088Z,15.38
2019-03-09T18:58:03.412Z,24.35
2019-03-09T19:00:41.876Z,18.30
2019-03-09T19:03:19.150Z,17.73
2019-03-09T19:06:08.820Z,17.73
2019-03-09T19:08:46.062Z,17.73
2019-03-09T19:11:35.352Z,25.48
2019-03-09T19:14:13.492Z,17.80
2019-03-09T19:16:51.310Z,19.25
2019-03-09T19:19:28.713Z,26.85
2019-03-09T19:22:06.519Z,20.15
2019-03-09T19:24:44.374Z,25.68
2019-03-09T19:27:21.802Z,17.30
2019-03-09T19:29:59.337Z,19.42
2019-03-09T19:32:37.371Z,18.95
2019-03-09T19:35:14.744Z,27.62
2019-03-09T19:37:52.073Z,23.95
2019-03-09T19:40:29.390Z,23.85
2019-03-09T19:43:06.875Z,15.85
2019-03-09T19:45:44.305Z,27.13
2019-03-09T19:48:21.601Z,16.87
2019-03-09T19:50:58.886Z,21.50
2019-03-09T19:53:37.674Z,18.87
2019-03-09T19:56:14.909Z,21.62
2019-03-09T19:58:52.257Z,20.70
2019-03-09T20:01:29.828Z,18.92
2019-03-09T20:04:07.067Z,26.48
2019-03-09T20:06:45.104Z,24.57
2019-03-09T20:09:22.716Z,22.55
2019-03-09T20:12:30.356Z,17.57
2019-03-09T20:15:45.298Z,19.42
2019-03-09T20:19:00.233Z,16.73
2019-03-09T20:21:54.522Z,18.77
2019-03-09T20:24:56.889Z,22.48
2019-03-09T20:27:39.435Z,13.55
2019-03-09T20:30:18.048Z,21.23
2019-03-09T20:32:55.372Z,17.95
2019-03-09T20:35:32.545Z,19.23
2019-03-09T20:38:10.078Z,23.50
2019-03-09T20:40:47.340Z,20.10
2019-03-09T20:43:24.899Z,20.62
2019-03-09T20:46:02.510Z,22.73
2019-03-09T20:48:40.593Z,20.48
2019-03-09T20:51:17.909Z,19.27
2019-03-09T20:53:55.296Z,29.57
2019-03-09T20:56:36.134Z,23.02
2019-03-09T20:59:13.486Z,23.07
2019-03-09T21:01:51.928Z,21.60
2019-03-09T21:04:29.414Z,16.27
2019-03-09T21:07:08.543Z,14.90
2019-03-09T21:09:48.022Z,17.12
2019-03-09T21:12:25.073Z,22.42
2019-03-09T21:15:04.318Z,16.25
2019-03-09T21:17:42.023Z,16.27
2019-03-09T21:20:19.385Z,21.33
2019-03-09T21:22:57.005Z,14.28
2019-03-09T21:25:34.365Z,13.68
2019-03-09T21:28:11.845Z,18.20
2019-03-09T21:30:49.566Z,20.82
2019-03-09T21:33:26.875Z,20.52
2019-03-09T21:36:04.268Z,25.30
2019-03-09T21:38:41.899Z,18.60
2019-03-09T21:41:19.276Z,19.80
2019-03-09T21:43:57.041Z,15.30
2019-03-09T21:46:35.040Z,22.60
2019-03-09T21:49:12.463Z,17.50
2019-03-09T21:51:50.315Z,14.63
2019-03-09T21:54:27.609Z,21.30
2019-03-09T21:57:05.194Z,19.80
2019-03-09T21:59:42.472Z,17.73
2019-03-09T22:02:19.991Z,14.45
2019-03-09T22:04:57.159Z,15.32
2019-03-09T22:07:35.274Z,21.42
2019-03-09T22:10:12.703Z,20.72
2019-03-09T22:12:50.040Z,35.95
2019-03-09T22:15:27.150Z,18.85
2019-03-09T22:18:05.882Z,18.77
2019-03-09T22:20:43.299Z,17.23
2019-03-09T22:23:21.124Z,16.27
2019-03-09T22:25:58.674Z,14.05
2019-03-09T22:28:36.277Z,18.62
2019-03-09T22:31:13.490Z,16.00
2019-03-09T22:33:50.967Z,20.45
2019-03-09T22:36:29.237Z,21.07
2019-03-09T22:39:07.013Z,27.80
2019-03-09T22:41:45.177Z,22.58
2019-03-09T22:44:23.134Z,24.15
2019-03-09T22:47:10.774Z,25.20
2019-03-09T22:49:40.271Z,22.87
2019-03-09T22:52:21.790Z,25.50
2019-03-09T22:57:35.215Z,28.23
2019-03-09T23:00:15.251Z,26.30
2019-03-09T23:02:54.532Z,36.38
2019-03-09T23:05:32.709Z,26.48
2019-03-09T23:08:10.278Z,32.50
2019-03-09T23:10:47.847Z,29.52
2019-03-09T23:13:26.043Z,36.08
2019-03-09T23:16:03.532Z,36.68
2019-03-09T23:18:41.410Z,36.20
2019-03-09T23:21:30.765Z,31.33
2019-03-09T23:24:08.149Z,30.65
2019-03-09T23:26:46.151Z,27.27
2019-03-09T23:29:23.607Z,33.65
2019-03-09T23:32:00.832Z,26.45
2019-03-09T23:34:38.754Z,25.85
2019-03-09T23:37:16.818Z,20.35
2019-03-09T23:39:54.571Z,27.05
2019-03-09T23:42:31.989Z,24.18
2019-03-09T23:45:11.607Z,15.58
2019-03-09T23:47:50.198Z,17.95
2019-03-09T23:50:27.618Z,11.73
2019-03-09T23:53:05.032Z,7.42
2019-03-09T23:55:42.894Z,6.33
2019-03-09T23:58:20.372Z,5.47
